Time;durP1;ratioP1;P1;durP2;ratioP2;P2;SDS_P1;SDS_P2;PMS_P1;PMS_P2;Temp;Humidity;BMP_temperature;BMP_pressure;BME280_temperature;BME280_humidity;BME280_pressure;Samples;Min_cycle;Max_cycle;Signal;HPM_P1;HPM_P2
2021/04/27 00:01:45;;;;;;;4.47;3.30;;;6.30;79.60;;;;;;5107403;27;20503;-86
2021/04/27 00:04:12;;;;;;;3.40;3.10;;;6.30;78.70;;;;;;5076862;27;21285;-87
2021/04/27 00:06:40;;;;;;;3.40;3.20;;;6.30;79.20;;;;;;5076470;27;20470;-86
2021/04/27 00:09:08;;;;;;;3.80;3.47;;;6.30;79.30;;;;;;5074059;27;21046;-86
2021/04/27 00:11:35;;;;;;;3.30;2.90;;;6.30;79.80;;;;;;5079151;27;20840;-87
2021/04/27 00:14:05;;;;;;;3.30;3.00;;;6.30;79.10;;;;;;5063770;27;21018;-88
2021/04/27 00:16:33;;;;;;;3.60;3.40;;;6.30;80.40;;;;;;5089356;27;20478;-87
2021/04/27 00:19:01;;;;;;;4.73;3.30;;;6.20;78.20;;;;;;5084413;27;20587;-86
2021/04/27 00:21:28;;;;;;;3.20;3.00;;;6.20;79.50;;;;;;5070483;27;20479;-86
2021/04/27 00:23:55;;;;;;;4.10;3.70;;;6.20;78.20;;;;;;5089743;27;20503;-86
2021/04/27 00:26:23;;;;;;;3.77;3.47;;;6.20;77.40;;;;;;5073413;27;20511;-87
2021/04/27 00:28:50;;;;;;;5.73;3.50;;;6.20;77.40;;;;;;5068175;27;20852;-87
2021/04/27 00:31:17;;;;;;;5.10;3.30;;;6.20;77.50;;;;;;5073024;28;20475;-86
2021/04/27 00:33:44;;;;;;;4.13;2.87;;;6.20;77.50;;;;;;5088409;27;21009;-87
2021/04/27 00:36:11;;;;;;;5.77;3.50;;;6.30;78.60;;;;;;5083204;27;20487;-87
2021/04/27 00:38:38;;;;;;;5.20;3.50;;;6.30;78.20;;;;;;5081343;27;20981;-87
2021/04/27 00:41:05;;;;;;;5.00;3.30;;;6.40;77.30;;;;;;5076357;27;20462;-87
2021/04/27 00:43:33;;;;;;;4.47;3.40;;;6.40;76.90;;;;;;5111808;27;20882;-87
2021/04/27 00:46:00;;;;;;;4.53;3.70;;;6.30;76.80;;;;;;5099680;27;20502;-86
2021/04/27 00:48:27;;;;;;;4.20;3.30;;;6.30;77.10;;;;;;5089754;27;20555;-88
2021/04/27 00:50:54;;;;;;;3.50;3.20;;;6.30;77.10;;;;;;5094703;27;20559;-87
2021/04/27 00:53:22;;;;;;;3.47;3.27;;;6.30;76.70;;;;;;5082458;27;20468;-86
2021/04/27 00:55:49;;;;;;;3.13;2.93;;;6.30;78.30;;;;;;5089950;28;20467;-86
2021/04/27 00:58:16;;;;;;;3.20;3.00;;;6.30;77.70;;;;;;5087637;27;20480;-85
2021/04/27 01:00:44;;;;;;;7.23;3.77;;;6.30;76.60;;;;;;5109220;27;20462;-85
2021/04/27 01:03:11;;;;;;;3.27;2.97;;;6.30;76.70;;;;;;5078085;27;20458;-86
2021/04/27 01:05:41;;;;;;;4.90;3.63;;;6.20;76.60;;;;;;5062591;27;20475;-87
2021/04/27 01:08:13;;;;;;;4.10;3.63;;;6.20;76.50;;;;;;5078996;27;20567;-86
2021/04/27 01:10:48;;;;;;;3.60;3.30;;;6.20;76.70;;;;;;5092615;27;20465;-86
2021/04/27 01:13:23;;;;;;;4.23;3.83;;;6.10;77.10;;;;;;5083127;27;20969;-86
2021/04/27 01:15:51;;;;;;;5.03;3.67;;;6.00;77.70;;;;;;5074533;27;21083;-86
2021/04/27 01:18:20;;;;;;;4.37;3.97;;;5.90;78.10;;;;;;5083301;27;20475;-86
2021/04/27 01:20:49;;;;;;;4.40;3.97;;;5.90;78.60;;;;;;5074356;27;20568;-86
2021/04/27 01:23:47;;;;;;;4.20;3.90;;;5.80;79.00;;;;;;5081472;27;20492;-86
2021/04/27 01:26:38;;;;;;;4.37;3.87;;;5.80;79.20;;;;;;5075477;27;20485;-86
2021/04/27 01:29:08;;;;;;;3.50;3.20;;;5.70;78.90;;;;;;5077967;27;20459;-86
2021/04/27 01:31:36;;;;;;;5.50;3.40;;;5.70;79.00;;;;;;5080577;27;20477;-87
2021/04/27 01:34:05;;;;;;;5.30;3.40;;;5.70;79.10;;;;;;5078839;27;20473;-86
2021/04/27 01:36:35;;;;;;;8.03;4.00;;;5.70;79.00;;;;;;5085441;27;20464;-86
2021/04/27 01:39:04;;;;;;;3.40;3.10;;;5.70;78.80;;;;;;5084360;27;20480;-87
2021/04/27 01:41:31;;;;;;;4.07;3.37;;;5.80;78.10;;;;;;5079248;27;21082;-85
2021/04/27 01:43:59;;;;;;;4.37;3.27;;;5.90;77.60;;;;;;5085360;27;20501;-86
2021/04/27 01:46:27;;;;;;;3.87;3.27;;;5.90;78.90;;;;;;5097122;27;20548;-86
2021/04/27 01:48:56;;;;;;;3.67;2.50;;;6.00;77.70;;;;;;5064072;27;20533;-86
2021/04/27 01:51:25;;;;;;;3.40;3.03;;;6.00;77.90;;;;;;5074670;27;20460;-86
2021/04/27 01:53:53;;;;;;;4.10;3.70;;;6.00;77.30;;;;;;5074416;27;20547;-86
2021/04/27 01:56:21;;;;;;;3.13;2.90;;;5.90;77.70;;;;;;5089595;27;20472;-86
2021/04/27 01:58:48;;;;;;;5.40;3.70;;;5.90;77.20;;;;;;5060427;28;20836;-87
2021/04/27 02:01:16;;;;;;;3.33;3.03;;;5.90;77.60;;;;;;5086903;28;20479;-86
2021/04/27 02:03:45;;;;;;;3.97;3.17;;;5.80;77.20;;;;;;5075871;28;20441;-86
2021/04/27 02:06:12;;;;;;;4.03;3.03;;;5.80;77.60;;;;;;5094181;28;20456;-85
2021/04/27 02:08:45;;;;;;;10.50;3.43;;;5.80;77.10;;;;;;5095088;28;20464;-86
2021/04/27 02:11:12;;;;;;;7.47;3.67;;;5.70;77.60;;;;;;5092507;28;20451;-85
2021/04/27 02:13:40;;;;;;;3.30;3.00;;;5.70;77.70;;;;;;5092144;28;20960;-84
2021/04/27 02:16:08;;;;;;;3.33;3.03;;;5.70;77.40;;;;;;5087585;28;20471;-84
2021/04/27 02:18:43;;;;;;;2.87;2.67;;;5.70;78.60;;;;;;5072136;27;20481;-84
2021/04/27 02:21:16;;;;;;;9.50;3.10;;;5.80;78.50;;;;;;5090325;27;20479;-84
2021/04/27 02:23:44;;;;;;;4.60;2.63;;;5.80;78.90;;;;;;5070229;27;20497;-86
2021/04/27 02:26:13;;;;;;;4.60;3.17;;;5.80;77.90;;;;;;5073939;27;20467;-86
2021/04/27 02:28:43;;;;;;;3.03;2.83;;;5.80;77.30;;;;;;5071555;27;20863;-86
2021/04/27 02:31:11;;;;;;;3.10;2.87;;;5.80;76.80;;;;;;5081966;28;20471;-85
2021/04/27 02:33:39;;;;;;;4.60;2.87;;;5.80;76.90;;;;;;5089588;27;20489;-86
2021/04/27 02:36:07;;;;;;;4.17;3.33;;;5.80;76.40;;;;;;5088462;27;20501;-86
2021/04/27 02:38:35;;;;;;;4.17;2.70;;;5.80;76.40;;;;;;5086819;27;20487;-85
2021/04/27 02:41:03;;;;;;;5.47;2.80;;;5.80;76.90;;;;;;5082114;27;21029;-84
2021/04/27 02:43:31;;;;;;;3.10;2.90;;;5.80;76.80;;;;;;5068938;27;20479;-85
2021/04/27 02:45:58;;;;;;;3.97;3.60;;;5.70;77.40;;;;;;5093608;27;20527;-85
2021/04/27 02:48:27;;;;;;;4.50;3.13;;;5.50;78.10;;;;;;5083981;27;20485;-85
2021/04/27 02:50:56;;;;;;;3.93;3.63;;;5.40;78.90;;;;;;5078097;27;20482;-85
2021/04/27 02:53:23;;;;;;;6.00;3.10;;;5.20;79.10;;;;;;5085921;27;21019;-84
2021/04/27 02:55:52;;;;;;;8.20;3.13;;;5.20;79.40;;;;;;5098775;27;20472;-85
2021/04/27 02:58:20;;;;;;;4.03;3.20;;;5.20;79.50;;;;;;5078636;27;20478;-86
2021/04/27 03:00:47;;;;;;;3.63;3.33;;;5.10;79.60;;;;;;5073402;27;21947;-84
2021/04/27 03:03:14;;;;;;;7.13;3.80;;;5.00;79.80;;;;;;5103072;27;20584;-85
2021/04/27 03:05:41;;;;;;;2.90;2.70;;;5.00;80.10;;;;;;5081066;27;21194;-86
2021/04/27 03:08:13;;;;;;;3.93;3.27;;;5.00;79.70;;;;;;5109932;27;20564;-85
2021/04/27 03:10:40;;;;;;;7.60;3.90;;;5.00;79.70;;;;;;5081957;27;20496;-84
2021/04/27 03:13:08;;;;;;;4.23;3.83;;;5.00;80.20;;;;;;5104257;27;20494;-84
2021/04/27 03:15:35;;;;;;;3.40;3.10;;;4.90;80.30;;;;;;5105866;27;20470;-85
2021/04/27 03:18:02;;;;;;;4.43;3.80;;;4.80;80.80;;;;;;5084912;27;20481;-84
2021/04/27 03:20:35;;;;;;;4.10;3.70;;;4.70;81.70;;;;;;5090073;27;20505;-85
2021/04/27 03:23:02;;;;;;;4.87;4.13;;;4.70;81.50;;;;;;5102260;27;20476;-83
2021/04/27 03:25:29;;;;;;;4.37;4.00;;;4.60;82.40;;;;;;5065754;28;20561;-84
2021/04/27 03:27:56;;;;;;;4.70;4.30;;;4.50;83.40;;;;;;5073412;27;20473;-84
2021/04/27 03:30:24;;;;;;;4.97;4.00;;;4.50;83.90;;;;;;5080276;28;21089;-85
2021/04/27 03:32:51;;;;;;;6.43;3.87;;;4.40;84.20;;;;;;5076845;27;20464;-84
2021/04/27 03:35:18;;;;;;;7.23;4.60;;;4.30;84.40;;;;;;5080082;27;20554;-83
2021/04/27 03:37:45;;;;;;;5.33;4.20;;;4.30;84.90;;;;;;5086594;27;20561;-85
2021/04/27 03:40:13;;;;;;;5.07;3.53;;;4.30;84.70;;;;;;5097970;27;20558;-84
2021/04/27 03:42:40;;;;;;;8.67;5.10;;;4.30;84.70;;;;;;5077993;27;20474;-85
2021/04/27 03:45:12;;;;;;;4.87;4.37;;;4.30;84.90;;;;;;5099499;27;20483;-85
2021/04/27 03:47:40;;;;;;;4.90;4.20;;;4.30;85.10;;;;;;5084340;27;20489;-85
2021/04/27 03:50:12;;;;;;;6.20;4.00;;;4.30;85.20;;;;;;5089360;27;20512;-84
2021/04/27 03:52:39;;;;;;;7.63;4.37;;;4.20;85.50;;;;;;5081546;27;20470;-84
2021/04/27 03:55:07;;;;;;;4.70;3.90;;;4.20;85.60;;;;;;5080388;27;20529;-86
2021/04/27 03:57:34;;;;;;;8.03;4.40;;;4.20;85.60;;;;;;5078892;27;20523;-85
2021/04/27 04:00:01;;;;;;;4.80;4.03;;;4.10;85.50;;;;;;5090238;27;20492;-86
2021/04/27 04:02:28;;;;;;;8.90;4.53;;;4.10;85.70;;;;;;5087475;27;20513;-84
2021/04/27 04:04:56;;;;;;;6.40;4.73;;;4.10;85.80;;;;;;5103411;27;20472;-87
2021/04/27 04:07:23;;;;;;;8.20;5.00;;;4.10;85.60;;;;;;5082674;27;20475;-84
2021/04/27 04:09:50;;;;;;;4.70;4.20;;;4.20;85.10;;;;;;5085269;27;20483;-84
2021/04/27 04:12:17;;;;;;;7.32;4.60;;;4.30;84.90;;;;;;5096443;27;20472;-84
2021/04/27 04:14:44;;;;;;;14.20;4.20;;;4.30;84.60;;;;;;5097474;27;20688;-84
2021/04/27 04:17:11;;;;;;;4.53;3.43;;;4.30;84.20;;;;;;5077948;27;20861;-84
2021/04/27 04:19:38;;;;;;;4.73;3.87;;;4.30;83.90;;;;;;5086719;27;20475;-84
2021/04/27 04:22:07;;;;;;;4.70;4.30;;;4.40;83.60;;;;;;5088505;27;20469;-84
2021/04/27 04:24:35;;;;;;;7.70;4.50;;;4.40;83.50;;;;;;5075177;27;20479;-84
2021/04/27 04:27:02;;;;;;;5.83;3.83;;;4.40;83.60;;;;;;5081620;27;20473;-84
2021/04/27 04:29:30;;;;;;;11.10;3.67;;;4.40;83.80;;;;;;5068966;27;20929;-85
2021/04/27 04:31:57;;;;;;;6.97;4.10;;;4.40;84.00;;;;;;5079387;27;20323;-84
2021/04/27 04:34:24;;;;;;;3.63;3.33;;;4.40;83.70;;;;;;5089941;27;20457;-85
2021/04/27 04:36:51;;;;;;;3.20;3.00;;;4.50;83.40;;;;;;5069883;27;20830;-85
2021/04/27 04:39:19;;;;;;;6.17;3.93;;;4.50;83.90;;;;;;5063839;27;20557;-85
2021/04/27 04:41:47;;;;;;;4.53;4.00;;;4.50;82.90;;;;;;5099391;27;20461;-84
2021/04/27 04:44:13;;;;;;;8.33;3.87;;;4.40;83.30;;;;;;5086532;27;20476;-85
2021/04/27 04:46:40;;;;;;;6.00;3.37;;;4.50;83.00;;;;;;5089576;27;20508;-84
2021/04/27 04:49:08;;;;;;;4.83;4.03;;;4.50;83.20;;;;;;5071930;27;20469;-83
2021/04/27 04:51:35;;;;;;;5.80;4.23;;;4.50;83.50;;;;;;5073958;27;20469;-84
2021/04/27 04:54:02;;;;;;;6.40;3.95;;;4.50;83.50;;;;;;5081461;27;20526;-84
2021/04/27 04:56:30;;;;;;;4.90;3.50;;;4.50;83.30;;;;;;5082472;27;20239;-84
2021/04/27 04:58:59;;;;;;;13.13;4.30;;;4.50;83.40;;;;;;5074950;27;20238;-85
2021/04/27 05:01:26;;;;;;;3.87;3.57;;;4.50;83.30;;;;;;5110855;27;20608;-84
2021/04/27 05:03:54;;;;;;;4.20;3.80;;;4.60;83.20;;;;;;5088480;27;20476;-87
2021/04/27 05:06:21;;;;;;;4.97;4.00;;;4.60;82.80;;;;;;5084552;27;20457;-87
2021/04/27 05:08:51;;;;;;;4.57;3.93;;;4.60;82.90;;;;;;5073831;27;20478;-85
2021/04/27 05:11:18;;;;;;;4.03;3.63;;;4.70;82.60;;;;;;5068275;27;20862;-85
2021/04/27 05:13:46;;;;;;;5.85;3.92;;;4.80;82.40;;;;;;5107733;27;20306;-84
2021/04/27 05:16:13;;;;;;;4.67;4.27;;;4.90;82.60;;;;;;5078484;27;20574;-85
2021/04/27 05:18:41;;;;;;;3.90;3.60;;;4.90;82.10;;;;;;5091453;27;20476;-84
2021/04/27 05:21:08;;;;;;;4.33;3.93;;;5.00;82.20;;;;;;5083113;27;20466;-85
2021/04/27 05:23:35;;;;;;;6.17;3.90;;;5.00;82.20;;;;;;5064250;27;20959;-85
2021/04/27 05:26:03;;;;;;;5.63;4.23;;;5.00;82.90;;;;;;5101744;27;20547;-87
2021/04/27 05:28:31;;;;;;;6.83;3.93;;;5.00;82.50;;;;;;5069244;27;20906;-85
2021/04/27 05:30:59;;;;;;;4.67;3.20;;;5.00;83.10;;;;;;5066702;27;20524;-85
2021/04/27 05:33:32;;;;;;;9.50;4.37;;;5.10;83.10;;;;;;5086203;27;20477;-86
2021/04/27 05:35:59;;;;;;;5.70;4.27;;;5.20;82.30;;;;;;5086466;27;20470;-85
2021/04/27 05:38:27;;;;;;;3.90;3.60;;;5.20;82.80;;;;;;5080180;27;20470;-85
2021/04/27 05:40:54;;;;;;;6.53;4.10;;;5.30;83.40;;;;;;5070251;27;20477;-86
2021/04/27 05:43:21;;;;;;;4.53;4.07;;;5.20;82.70;;;;;;5071083;27;20975;-84
2021/04/27 05:45:48;;;;;;;5.10;3.63;;;5.20;82.80;;;;;;5102240;27;20497;-84
2021/04/27 05:48:16;;;;;;;8.63;4.63;;;5.30;83.40;;;;;;5088601;27;21246;-85
2021/04/27 05:50:43;;;;;;;4.10;3.47;;;5.40;83.00;;;;;;5080012;27;21109;-86
2021/04/27 05:53:10;;;;;;;8.30;4.40;;;5.50;82.10;;;;;;5085401;27;20478;-88
2021/04/27 05:55:40;;;;;;;4.37;3.50;;;5.50;82.40;;;;;;5085452;27;21035;-88
2021/04/27 05:58:07;;;;;;;4.40;3.90;;;5.70;82.40;;;;;;5103289;27;20470;-89
2021/04/27 06:00:34;;;;;;;3.83;3.53;;;5.80;81.60;;;;;;5109054;27;20950;-89
2021/04/27 06:03:22;;;;;;;3.90;3.60;;;5.80;81.40;;;;;;5088320;28;20481;-88
2021/04/27 06:05:49;;;;;;;9.23;3.80;;;5.80;81.70;;;;;;5088786;28;20474;-88
2021/04/27 06:08:16;;;;;;;6.83;4.33;;;5.60;82.10;;;;;;5080043;28;20548;-88
2021/04/27 06:10:43;;;;;;;12.23;5.97;;;5.70;82.60;;;;;;5071505;27;20514;-88
2021/04/27 06:13:10;;;;;;;8.33;4.10;;;5.70;82.70;;;;;;5091472;28;20876;-88
2021/04/27 06:15:37;;;;;;;5.80;3.80;;;5.80;82.80;;;;;;5083643;28;20556;-88
2021/04/27 06:18:04;;;;;;;4.13;3.33;;;6.00;82.70;;;;;;5093780;28;20506;-88
2021/04/27 06:20:32;;;;;;;3.83;3.53;;;6.10;82.20;;;;;;5082543;28;20482;-88
2021/04/27 06:22:59;;;;;;;6.70;4.13;;;6.20;82.40;;;;;;5074786;28;20479;-87
2021/04/27 06:25:26;;;;;;;5.10;4.23;;;6.30;81.70;;;;;;5075790;27;20477;-88
2021/04/27 06:27:53;;;;;;;4.40;4.00;;;6.40;81.50;;;;;;5076332;27;20575;-88
2021/04/27 06:30:23;;;;;;;3.57;3.27;;;6.40;82.20;;;;;;5063356;28;20840;-88
2021/04/27 06:32:52;;;;;;;5.43;3.97;;;6.40;82.10;;;;;;5065471;28;20476;-89
2021/04/27 06:35:20;;;;;;;6.83;3.37;;;6.40;82.00;;;;;;5067057;28;20472;-87
2021/04/27 06:37:48;;;;;;;10.73;4.00;;;6.30;82.10;;;;;;5068388;28;20554;-87
2021/04/27 06:40:15;;;;;;;4.13;3.60;;;6.20;82.70;;;;;;5065509;28;20542;-88
2021/04/27 06:42:42;;;;;;;3.40;3.10;;;6.20;83.80;;;;;;5056319;27;20478;-88
2021/04/27 06:45:11;;;;;;;5.70;4.30;;;6.30;83.50;;;;;;5086719;27;21093;-88
2021/04/27 06:47:38;;;;;;;4.17;3.73;;;6.40;83.50;;;;;;5059339;28;20459;-88
2021/04/27 06:50:07;;;;;;;5.43;4.30;;;6.50;83.50;;;;;;5065435;28;20969;-87
2021/04/27 06:52:35;;;;;;;8.10;3.63;;;6.70;84.00;;;;;;5058763;28;21099;-88
2021/04/27 06:55:04;;;;;;;11.47;4.13;;;6.80;82.60;;;;;;5083756;27;20475;-88
2021/04/27 06:57:31;;;;;;;4.20;3.20;;;6.90;81.30;;;;;;5050050;28;21316;-88
2021/04/27 06:59:58;;;;;;;5.17;3.50;;;7.10;81.20;;;;;;5078424;27;20481;-87
2021/04/27 07:02:25;;;;;;;3.43;3.13;;;7.20;81.80;;;;;;5103611;27;20516;-87
2021/04/27 07:04:53;;;;;;;4.23;3.83;;;7.30;80.30;;;;;;5049456;28;20473;-87
2021/04/27 07:07:20;;;;;;;3.50;3.20;;;7.50;81.10;;;;;;5091831;27;20475;-87
2021/04/27 07:09:47;;;;;;;8.10;4.43;;;7.70;78.80;;;;;;5102962;27;20475;-88
2021/04/27 07:12:16;;;;;;;5.23;2.90;;;7.80;76.80;;;;;;5093386;27;20468;-87
2021/04/27 07:14:43;;;;;;;3.97;2.67;;;7.90;77.70;;;;;;5094278;27;20569;-87
2021/04/27 07:17:10;;;;;;;3.50;3.20;;;8.00;76.40;;;;;;5090525;27;20516;-87
2021/04/27 07:19:37;;;;;;;4.20;2.93;;;8.10;76.70;;;;;;5064893;28;21080;-87
2021/04/27 07:22:05;;;;;;;3.53;3.20;;;8.20;76.40;;;;;;5064917;28;20643;-87
2021/04/27 07:24:32;;;;;;;3.27;2.83;;;8.40;76.60;;;;;;5053696;28;20571;-87
2021/04/27 07:26:59;;;;;;;7.77;3.07;;;8.60;76.00;;;;;;5084763;27;20592;-87
2021/04/27 07:29:27;;;;;;;3.73;2.80;;;8.70;74.20;;;;;;5104741;27;20490;-87
2021/04/27 07:31:55;;;;;;;5.50;3.30;;;8.90;74.70;;;;;;5096392;27;20869;-87
2021/04/27 07:34:22;;;;;;;3.80;2.87;;;9.00;71.50;;;;;;5069320;27;20558;-86
2021/04/27 07:36:49;;;;;;;2.93;2.73;;;9.00;72.10;;;;;;5103113;27;21070;-87
2021/04/27 07:39:16;;;;;;;4.33;2.60;;;9.10;72.30;;;;;;5093293;27;20556;-88
2021/04/27 07:41:44;;;;;;;3.10;2.80;;;9.20;72.30;;;;;;5094940;27;20519;-88
2021/04/27 07:44:11;;;;;;;5.10;2.93;;;9.40;72.50;;;;;;5105858;27;20550;-88
2021/04/27 07:46:39;;;;;;;4.20;2.77;;;9.60;70.60;;;;;;5089728;27;20935;-87
2021/04/27 07:49:07;;;;;;;4.50;3.03;;;9.70;71.30;;;;;;5086213;27;20465;-88
2021/04/27 07:51:35;;;;;;;5.07;2.47;;;9.80;68.70;;;;;;5085014;27;20504;-88
2021/04/27 07:54:03;;;;;;;3.50;3.20;;;9.90;68.80;;;;;;5074805;27;20849;-87
2021/04/27 07:56:30;;;;;;;8.83;2.90;;;10.10;69.20;;;;;;5104462;27;20555;-88
2021/04/27 07:58:58;;;;;;;5.63;3.07;;;10.20;69.10;;;;;;5104068;27;20484;-87
2021/04/27 08:01:28;;;;;;;4.23;2.83;;;10.20;67.20;;;;;;5099296;27;20550;-87
2021/04/27 08:03:56;;;;;;;3.10;2.80;;;10.20;68.20;;;;;;5082647;27;20472;-87
2021/04/27 08:06:24;;;;;;;3.13;2.80;;;10.40;68.20;;;;;;5099150;27;20460;-88
2021/04/27 08:08:59;;;;;;;2.80;2.60;;;10.50;68.70;;;;;;5093062;27;20463;-87
2021/04/27 08:11:29;;;;;;;2.10;2.00;;;10.60;68.10;;;;;;5085294;27;20823;-87
2021/04/27 08:13:56;;;;;;;7.57;3.17;;;10.80;68.60;;;;;;5070570;27;20489;-88
2021/04/27 08:16:24;;;;;;;2.73;2.53;;;10.90;66.30;;;;;;5085826;27;20477;-87
2021/04/27 08:18:52;;;;;;;5.03;2.70;;;10.90;66.20;;;;;;5085164;27;20473;-87
2021/04/27 08:21:23;;;;;;;2.90;2.70;;;11.00;66.80;;;;;;5085872;27;20469;-88
2021/04/27 08:23:51;;;;;;;3.43;2.80;;;11.10;66.40;;;;;;5086280;27;20461;-88
2021/04/27 08:26:19;;;;;;;3.97;3.00;;;11.10;65.90;;;;;;5090057;27;20507;-88
2021/04/27 08:28:46;;;;;;;3.13;2.83;;;11.20;63.90;;;;;;5084551;27;20467;-88
2021/04/27 08:31:14;;;;;;;4.20;2.80;;;11.30;66.00;;;;;;5116329;27;20469;-87
2021/04/27 08:33:44;;;;;;;4.17;2.80;;;11.40;65.90;;;;;;5086257;27;20464;-87
2021/04/27 08:36:12;;;;;;;3.67;2.90;;;11.50;65.40;;;;;;5088497;27;20892;-87
2021/04/27 08:38:41;;;;;;;8.00;3.40;;;11.50;64.60;;;;;;5103834;27;20468;-87
2021/04/27 08:41:10;;;;;;;3.97;2.77;;;11.60;63.90;;;;;;5074701;27;20496;-88
2021/04/27 08:43:39;;;;;;;3.40;3.03;;;11.60;64.00;;;;;;5073788;28;20527;-88
2021/04/27 08:46:07;;;;;;;2.87;2.67;;;11.70;64.90;;;;;;5082102;28;20475;-88
2021/04/27 08:48:34;;;;;;;3.23;2.93;;;11.90;63.60;;;;;;5063216;28;20478;-87
2021/04/27 08:51:02;;;;;;;10.37;3.07;;;12.00;65.00;;;;;;5058183;28;21611;-87
2021/04/27 08:53:29;;;;;;;3.03;2.73;;;12.20;65.40;;;;;;5074732;28;20484;-88
2021/04/27 08:55:58;;;;;;;3.33;3.03;;;12.30;62.90;;;;;;5083661;28;20469;-88
2021/04/27 08:58:26;;;;;;;6.63;2.70;;;12.30;63.40;;;;;;5081089;28;20476;-88
2021/04/27 09:00:53;;;;;;;3.50;2.83;;;12.30;62.90;;;;;;5094025;28;20559;-88
2021/04/27 09:03:20;;;;;;;3.90;3.10;;;12.50;62.40;;;;;;5090256;28;20839;-90
2021/04/27 09:05:47;;;;;;;3.60;2.73;;;12.50;62.20;;;;;;5090492;28;20583;-89
2021/04/27 09:08:35;;;;;;;5.30;4.23;;;12.50;61.10;;;;;;5078197;28;20541;-89
2021/04/27 09:11:23;;;;;;;3.83;2.97;;;12.60;62.80;;;;;;5079991;27;20473;-89
2021/04/27 09:14:06;;;;;;;7.93;3.47;;;12.80;62.70;;;;;;5095282;27;20571;-89
2021/04/27 09:16:34;;;;;;;3.00;2.70;;;13.00;63.00;;;;;;5116127;27;20462;-89
2021/04/27 09:19:01;;;;;;;4.80;3.03;;;13.10;61.00;;;;;;5092955;27;20563;-89
2021/04/27 09:21:33;;;;;;;2.87;2.67;;;13.20;62.50;;;;;;5091142;27;20489;-89
2021/04/27 09:24:13;;;;;;;3.87;3.57;;;13.40;64.00;;;;;;5100355;27;20483;-90
2021/04/27 09:26:42;;;;;;;4.23;3.17;;;13.60;61.90;;;;;;5073952;27;20902;-89
2021/04/27 09:29:09;;;;;;;5.70;2.70;;;13.70;63.00;;;;;;5103293;27;20486;-88
2021/04/27 09:31:38;;;;;;;5.20;3.50;;;13.80;62.00;;;;;;5108473;27;20460;-89
2021/04/27 09:34:21;;;;;;;4.43;3.57;;;13.90;59.70;;;;;;5090420;27;20968;-89
2021/04/27 09:36:49;;;;;;;4.30;3.60;;;14.10;61.50;;;;;;5089500;27;20507;-89
2021/04/27 09:39:20;;;;;;;5.10;3.80;;;14.30;61.20;;;;;;5090247;27;20537;-89
2021/04/27 09:41:59;;;;;;;4.30;3.40;;;14.30;59.30;;;;;;5100563;27;20474;-90
2021/04/27 09:44:32;;;;;;;3.57;2.90;;;14.40;60.00;;;;;;5099181;27;20468;-89
2021/04/27 09:47:07;;;;;;;4.03;3.20;;;14.50;58.40;;;;;;5109372;27;20471;-89
2021/04/27 09:49:34;;;;;;;4.23;3.03;;;14.60;57.00;;;;;;5087859;27;20464;-89
2021/04/27 09:52:07;;;;;;;6.37;4.17;;;14.70;57.60;;;;;;5108112;27;20895;-86
2021/04/27 09:54:35;;;;;;;7.90;3.77;;;14.90;59.40;;;;;;5103192;27;20494;-86
2021/04/27 09:57:03;;;;;;;6.10;3.70;;;15.00;58.50;;;;;;5097540;27;20497;-87
2021/04/27 09:59:31;;;;;;;4.07;3.73;;;15.10;57.70;;;;;;5106668;27;20471;-86
2021/04/27 10:02:01;;;;;;;5.93;4.10;;;15.20;57.80;;;;;;5108053;27;20486;-90
2021/04/27 10:04:28;;;;;;;7.20;4.67;;;15.40;56.20;;;;;;5081845;27;20476;-89
2021/04/27 10:07:01;;;;;;;3.70;3.40;;;15.40;56.10;;;;;;5085263;27;20476;-90
2021/04/27 10:09:29;;;;;;;3.80;3.50;;;15.50;57.80;;;;;;5082698;27;20476;-89
2021/04/27 10:11:57;;;;;;;4.77;4.27;;;15.70;55.00;;;;;;5073831;27;20484;-89
2021/04/27 10:14:27;;;;;;;8.47;4.03;;;15.80;58.60;;;;;;5082601;28;20480;-89
2021/04/27 10:16:54;;;;;;;4.37;3.30;;;15.90;55.00;;;;;;5095461;27;20473;-89
2021/04/27 10:19:23;;;;;;;5.03;3.77;;;16.10;57.00;;;;;;5090051;27;20545;-90
2021/04/27 10:21:51;;;;;;;5.00;4.07;;;16.30;55.30;;;;;;5093010;27;20557;-89
2021/04/27 10:24:23;;;;;;;4.93;3.97;;;16.40;54.60;;;;;;5084493;27;20472;-91
2021/04/27 10:26:51;;;;;;;8.83;4.40;;;16.60;55.60;;;;;;5106487;27;21096;-90
2021/04/27 10:29:20;;;;;;;3.90;3.60;;;16.60;55.40;;;;;;5083886;27;20481;-90
2021/04/27 10:32:23;;;;;;;8.17;3.63;;;16.70;56.00;;;;;;5090396;27;20490;-90
2021/04/27 10:35:10;;;;;;;3.93;3.63;;;17.00;55.00;;;;;;5094327;27;20483;-88
2021/04/27 10:38:00;;;;;;;5.50;4.23;;;17.20;55.40;;;;;;5088842;27;20460;-90
2021/04/27 10:40:48;;;;;;;6.07;3.90;;;17.20;51.40;;;;;;5100691;27;20479;-90
2021/04/27 10:43:31;;;;;;;4.97;4.00;;;17.30;55.00;;;;;;5078987;27;20473;-91
2021/04/27 10:46:01;;;;;;;7.70;4.10;;;17.40;54.70;;;;;;5092540;27;20476;-89
2021/04/27 10:48:31;;;;;;;8.63;4.30;;;17.60;53.90;;;;;;5075271;27;20497;-89
2021/04/27 10:51:33;;;;;;;5.13;4.37;;;17.70;51.60;;;;;;5087918;27;20541;-89
2021/04/27 10:54:07;;;;;;;3.90;3.60;;;17.60;51.30;;;;;;5078762;27;20467;-89
2021/04/27 10:56:36;;;;;;;4.97;3.73;;;17.70;52.20;;;;;;5077149;27;20918;-89
2021/04/27 10:59:09;;;;;;;6.53;4.37;;;17.80;53.90;;;;;;5090202;27;21041;-89
2021/04/27 11:01:37;;;;;;;5.43;3.70;;;18.10;53.30;;;;;;5104594;27;20463;-89
2021/04/27 11:04:06;;;;;;;5.50;4.20;;;18.30;51.20;;;;;;5093998;27;20468;-89
2021/04/27 11:06:33;;;;;;;4.23;3.83;;;18.50;50.70;;;;;;5082989;27;20486;-89
2021/04/27 11:09:11;;;;;;;3.87;3.57;;;18.60;50.60;;;;;;5097019;27;20484;-89
2021/04/27 11:11:39;;;;;;;3.80;3.50;;;18.70;51.10;;;;;;5078131;27;20470;-88
2021/04/27 11:14:20;;;;;;;5.70;4.30;;;18.80;47.60;;;;;;5104043;27;20479;-89
2021/04/27 11:16:53;;;;;;;4.70;3.97;;;18.80;49.80;;;;;;5105813;27;20473;-88
2021/04/27 11:19:42;;;;;;;3.83;3.43;;;19.00;50.20;;;;;;5084875;28;20884;-89
2021/04/27 11:22:18;;;;;;;4.70;3.90;;;19.20;48.00;;;;;;5083837;28;21205;-89
2021/04/27 11:24:46;;;;;;;5.93;3.30;;;19.40;46.70;;;;;;5093338;27;20551;-89
2021/04/27 11:27:25;;;;;;;4.33;3.73;;;19.50;46.70;;;;;;5080735;27;20499;-89
2021/04/27 11:29:55;;;;;;;5.47;3.97;;;19.50;46.20;;;;;;5098458;27;20476;-89
2021/04/27 11:32:23;;;;;;;4.87;3.43;;;19.70;46.10;;;;;;5079317;27;21152;-90
2021/04/27 11:35:00;;;;;;;5.30;3.90;;;19.80;45.70;;;;;;5067153;27;20466;-89
2021/04/27 11:37:30;;;;;;;6.60;3.90;;;20.10;43.50;;;;;;5059989;27;20922;-89
2021/04/27 11:39:59;;;;;;;3.73;3.47;;;20.40;47.40;;;;;;5090477;27;21070;-89
2021/04/27 11:42:31;;;;;;;4.07;3.30;;;20.60;41.80;;;;;;5088424;27;20460;-90
2021/04/27 11:45:06;;;;;;;3.50;3.20;;;20.60;42.40;;;;;;5105682;27;20555;-89
2021/04/27 11:47:35;;;;;;;4.23;3.53;;;20.80;42.10;;;;;;5092733;27;20546;-89
2021/04/27 11:50:06;;;;;;;7.27;4.00;;;20.90;42.60;;;;;;5085221;27;20988;-89
2021/04/27 11:52:52;;;;;;;3.93;3.53;;;21.00;46.10;;;;;;5078514;27;20470;-88
2021/04/27 11:55:25;;;;;;;4.97;4.20;;;21.90;46.10;;;;;;5082436;27;20440;-90
2021/04/27 11:57:58;;;;;;;7.43;3.83;;;24.00;41.70;;;;;;5070355;28;20480;-89
2021/04/27 12:00:31;;;;;;;4.23;3.40;;;26.60;38.50;;;;;;5108870;27;20563;-89
2021/04/27 12:02:58;;;;;;;3.70;3.40;;;28.50;35.70;;;;;;5079739;27;20500;-90
2021/04/27 12:05:33;;;;;;;4.63;3.23;;;29.90;35.80;;;;;;5077094;28;20879;-90
2021/04/27 12:08:00;;;;;;;6.90;3.03;;;31.70;32.10;;;;;;5090674;27;20460;-89
2021/04/27 12:10:28;;;;;;;3.93;3.30;;;31.70;32.10;;;;;;5080972;27;20493;-88
2021/04/27 12:12:55;;;;;;;3.50;3.20;;;;;;;;;;5103696;27;20482;-87
2021/04/27 12:15:23;;;;;;;5.30;3.90;;;33.30;28.90;;;;;;5097610;27;20518;-88
2021/04/27 12:17:50;;;;;;;3.57;3.10;;;32.70;29.80;;;;;;5091718;27;20522;-88
2021/04/27 12:20:18;;;;;;;4.13;2.97;;;33.00;28.40;;;;;;5065635;27;20481;-87
2021/04/27 12:22:49;;;;;;;4.80;3.90;;;32.60;28.10;;;;;;5070371;27;20466;-88
2021/04/27 12:25:27;;;;;;;7.13;3.13;;;33.20;30.50;;;;;;5078195;28;21093;-87
2021/04/27 12:28:01;;;;;;;4.73;2.73;;;33.60;30.30;;;;;;5088380;27;20476;-88
2021/04/27 12:30:29;;;;;;;3.60;3.03;;;33.80;30.30;;;;;;5074048;27;20590;-87
2021/04/27 12:33:04;;;;;;;4.27;3.37;;;34.50;30.50;;;;;;5086648;28;20499;-88
2021/04/27 12:35:33;;;;;;;3.77;3.47;;;34.60;29.70;;;;;;5084979;27;20457;-90
2021/04/27 12:38:04;;;;;;;3.17;2.97;;;34.70;27.70;;;;;;5073314;27;20578;-87
2021/04/27 12:40:35;;;;;;;3.93;3.23;;;35.00;27.80;;;;;;5075182;28;20473;-89
2021/04/27 12:43:05;;;;;;;5.40;3.00;;;35.00;28.40;;;;;;5074838;27;20493;-88
2021/04/27 12:45:44;;;;;;;3.07;2.87;;;35.30;27.90;;;;;;5081798;27;20526;-88
2021/04/27 12:48:12;;;;;;;3.10;2.63;;;35.60;28.40;;;;;;5066032;27;20469;-88
2021/04/27 12:50:48;;;;;;;4.23;2.93;;;35.30;28.10;;;;;;5076934;27;20507;-87
2021/04/27 12:53:17;;;;;;;3.67;3.20;;;34.20;26.70;;;;;;5080929;27;20457;-87
2021/04/27 12:55:54;;;;;;;2.80;2.60;;;33.40;29.10;;;;;;5072920;27;20482;-87
2021/04/27 12:58:24;;;;;;;4.90;3.50;;;33.50;29.20;;;;;;5059856;28;20587;-88
2021/04/27 13:00:54;;;;;;;4.23;3.60;;;34.20;28.80;;;;;;5110187;27;20973;-89
2021/04/27 13:03:23;;;;;;;3.20;2.90;;;34.10;28.70;;;;;;5089330;27;20469;-89
2021/04/27 13:05:51;;;;;;;3.27;3.00;;;34.10;27.60;;;;;;5088243;27;20554;-88